sensor_id;sensor_type;location;lat;lon;timestamp;P1;durP1;ratioP1;P2;durP2;ratioP2
15287;SDS011;7745;48.708;9.026;2023-02-15T00:01:24;30.20;;;21.07;;
15287;SDS011;7745;48.708;9.026;2023-02-15T00:03:51;28.47;;;20.37;;
15287;SDS011;7745;48.708;9.026;2023-02-15T00:06:17;35.03;;;21.37;;
15287;SDS011;7745;48.708;9.026;2023-02-15T00:08:44;34.77;;;22.10;;
15287;SDS011;7745;48.708;9.026;2023-02-15T00:11:13;31.17;;;21.90;;
15287;SDS011;7745;48.708;9.026;2023-02-15T00:13:41;33.97;;;22.40;;
15287;SDS011;7745;48.708;9.026;2023-02-15T00:16:08;34.90;;;22.00;;
15287;SDS011;7745;48.708;9.026;2023-02-15T00:18:36;32.80;;;20.67;;
15287;SDS011;7745;48.708;9.026;2023-02-15T00:21:04;33.07;;;22.33;;
15287;SDS011;7745;48.708;9.026;2023-02-15T00:23:33;31.23;;;20.67;;
15287;SDS011;7745;48.708;9.026;2023-02-15T00:26:03;30.70;;;20.80;;
15287;SDS011;7745;48.708;9.026;2023-02-15T00:28:32;27.33;;;20.00;;
15287;SDS011;7745;48.708;9.026;2023-02-15T00:31:03;33.23;;;21.00;;
15287;SDS011;7745;48.708;9.026;2023-02-15T00:33:31;28.30;;;18.97;;
15287;SDS011;7745;48.708;9.026;2023-02-15T00:35:58;29.43;;;18.93;;
15287;SDS011;7745;48.708;9.026;2023-02-15T00:38:26;29.87;;;19.67;;
15287;SDS011;7745;48.708;9.026;2023-02-15T00:40:54;31.63;;;20.93;;
15287;SDS011;7745;48.708;9.026;2023-02-15T00:43:21;30.30;;;19.60;;
15287;SDS011;7745;48.708;9.026;2023-02-15T00:45:51;28.33;;;19.90;;
15287;SDS011;7745;48.708;9.026;2023-02-15T00:48:18;26.50;;;19.13;;
15287;SDS011;7745;48.708;9.026;2023-02-15T00:50:45;32.80;;;20.57;;
15287;SDS011;7745;48.708;9.026;2023-02-15T00:53:13;30.30;;;19.73;;
15287;SDS011;7745;48.708;9.026;2023-02-15T00:55:39;29.17;;;19.90;;
15287;SDS011;7745;48.708;9.026;2023-02-15T00:58:06;30.03;;;19.63;;
15287;SDS011;7745;48.708;9.026;2023-02-15T01:00:33;29.00;;;18.90;;
15287;SDS011;7745;48.708;9.026;2023-02-15T01:03:02;29.20;;;19.73;;
15287;SDS011;7745;48.708;9.026;2023-02-15T01:05:29;31.13;;;19.57;;
15287;SDS011;7745;48.708;9.026;2023-02-15T01:07:57;26.87;;;19.03;;
15287;SDS011;7745;48.708;9.026;2023-02-15T01:10:24;29.10;;;18.47;;
15287;SDS011;7745;48.708;9.026;2023-02-15T01:12:52;29.30;;;18.90;;
15287;SDS011;7745;48.708;9.026;2023-02-15T01:15:19;30.93;;;19.33;;
15287;SDS011;7745;48.708;9.026;2023-02-15T01:17:47;30.83;;;20.47;;
15287;SDS011;7745;48.708;9.026;2023-02-15T01:20:19;29.03;;;19.90;;
15287;SDS011;7745;48.708;9.026;2023-02-15T01:22:46;29.27;;;19.23;;
15287;SDS011;7745;48.708;9.026;2023-02-15T01:25:15;30.77;;;19.67;;
15287;SDS011;7745;48.708;9.026;2023-02-15T01:27:41;26.47;;;18.37;;
15287;SDS011;7745;48.708;9.026;2023-02-15T01:30:09;29.60;;;19.53;;
15287;SDS011;7745;48.708;9.026;2023-02-15T01:32:36;27.27;;;19.13;;
15287;SDS011;7745;48.708;9.026;2023-02-15T01:35:03;29.73;;;19.33;;
15287;SDS011;7745;48.708;9.026;2023-02-15T01:37:32;30.77;;;19.30;;
15287;SDS011;7745;48.708;9.026;2023-02-15T01:39:59;26.77;;;19.00;;
15287;SDS011;7745;48.708;9.026;2023-02-15T01:42:26;30.17;;;19.03;;
15287;SDS011;7745;48.708;9.026;2023-02-15T01:44:55;27.73;;;18.97;;
15287;SDS011;7745;48.708;9.026;2023-02-15T01:47:23;32.17;;;19.73;;
15287;SDS011;7745;48.708;9.026;2023-02-15T01:49:59;29.93;;;20.03;;
15287;SDS011;7745;48.708;9.026;2023-02-15T01:52:29;29.00;;;19.23;;
15287;SDS011;7745;48.708;9.026;2023-02-15T01:54:57;30.43;;;19.20;;
15287;SDS011;7745;48.708;9.026;2023-02-15T01:57:25;31.57;;;20.00;;
15287;SDS011;7745;48.708;9.026;2023-02-15T01:59:53;28.47;;;20.00;;
15287;SDS011;7745;48.708;9.026;2023-02-15T02:02:23;30.97;;;20.33;;
15287;SDS011;7745;48.708;9.026;2023-02-15T02:04:51;30.07;;;19.13;;
15287;SDS011;7745;48.708;9.026;2023-02-15T02:07:21;30.13;;;18.53;;
15287;SDS011;7745;48.708;9.026;2023-02-15T02:09:50;28.70;;;18.47;;
15287;SDS011;7745;48.708;9.026;2023-02-15T02:12:19;27.87;;;19.10;;
15287;SDS011;7745;48.708;9.026;2023-02-15T02:14:47;30.20;;;18.43;;
15287;SDS011;7745;48.708;9.026;2023-02-15T02:17:16;27.70;;;18.47;;
15287;SDS011;7745;48.708;9.026;2023-02-15T02:26:00;29.27;;;18.40;;
15287;SDS011;7745;48.708;9.026;2023-02-15T02:29:01;28.57;;;18.47;;
15287;SDS011;7745;48.708;9.026;2023-02-15T02:31:56;27.37;;;17.67;;
15287;SDS011;7745;48.708;9.026;2023-02-15T02:34:50;29.47;;;18.47;;
15287;SDS011;7745;48.708;9.026;2023-02-15T02:37:22;30.97;;;19.23;;
15287;SDS011;7745;48.708;9.026;2023-02-15T02:39:55;27.53;;;17.63;;
15287;SDS011;7745;48.708;9.026;2023-02-15T02:42:32;27.13;;;19.17;;
15287;SDS011;7745;48.708;9.026;2023-02-15T02:45:05;25.87;;;18.00;;
15287;SDS011;7745;48.708;9.026;2023-02-15T02:47:35;28.67;;;18.40;;
15287;SDS011;7745;48.708;9.026;2023-02-15T02:50:08;29.30;;;19.23;;
15287;SDS011;7745;48.708;9.026;2023-02-15T02:52:39;30.10;;;18.77;;
15287;SDS011;7745;48.708;9.026;2023-02-15T02:55:10;28.47;;;19.63;;
15287;SDS011;7745;48.708;9.026;2023-02-15T02:57:42;28.07;;;19.23;;
15287;SDS011;7745;48.708;9.026;2023-02-15T03:00:14;30.77;;;19.63;;
15287;SDS011;7745;48.708;9.026;2023-02-15T03:02:41;27.47;;;18.67;;
15287;SDS011;7745;48.708;9.026;2023-02-15T03:05:13;31.23;;;18.90;;
15287;SDS011;7745;48.708;9.026;2023-02-15T03:07:41;27.80;;;18.63;;
15287;SDS011;7745;48.708;9.026;2023-02-15T03:10:11;31.23;;;18.97;;
15287;SDS011;7745;48.708;9.026;2023-02-15T03:12:39;29.60;;;18.87;;
15287;SDS011;7745;48.708;9.026;2023-02-15T03:15:09;30.03;;;19.73;;
15287;SDS011;7745;48.708;9.026;2023-02-15T03:17:40;28.20;;;19.30;;
15287;SDS011;7745;48.708;9.026;2023-02-15T03:20:11;30.90;;;19.80;;
15287;SDS011;7745;48.708;9.026;2023-02-15T03:22:44;31.70;;;20.37;;
15287;SDS011;7745;48.708;9.026;2023-02-15T03:25:16;28.30;;;18.00;;
15287;SDS011;7745;48.708;9.026;2023-02-15T03:27:48;31.37;;;20.13;;
15287;SDS011;7745;48.708;9.026;2023-02-15T03:30:19;30.03;;;18.00;;
15287;SDS011;7745;48.708;9.026;2023-02-15T03:32:48;27.07;;;19.57;;
15287;SDS011;7745;48.708;9.026;2023-02-15T03:35:19;30.20;;;18.63;;
15287;SDS011;7745;48.708;9.026;2023-02-15T03:37:51;30.97;;;18.83;;
15287;SDS011;7745;48.708;9.026;2023-02-15T03:40:21;29.57;;;19.63;;
15287;SDS011;7745;48.708;9.026;2023-02-15T03:43:10;30.50;;;19.53;;
15287;SDS011;7745;48.708;9.026;2023-02-15T03:45:44;28.87;;;18.33;;
15287;SDS011;7745;48.708;9.026;2023-02-15T03:48:21;24.63;;;16.93;;
15287;SDS011;7745;48.708;9.026;2023-02-15T03:50:53;28.17;;;19.07;;
15287;SDS011;7745;48.708;9.026;2023-02-15T03:53:42;29.00;;;18.07;;
15287;SDS011;7745;48.708;9.026;2023-02-15T03:56:10;28.43;;;18.43;;
15287;SDS011;7745;48.708;9.026;2023-02-15T03:58:37;28.63;;;18.47;;
15287;SDS011;7745;48.708;9.026;2023-02-15T04:01:23;29.63;;;18.90;;
15287;SDS011;7745;48.708;9.026;2023-02-15T04:04:23;32.30;;;19.97;;
15287;SDS011;7745;48.708;9.026;2023-02-15T04:06:53;31.17;;;18.87;;
15287;SDS011;7745;48.708;9.026;2023-02-15T04:09:20;32.17;;;19.83;;
15287;SDS011;7745;48.708;9.026;2023-02-15T04:12:05;29.53;;;20.47;;
15287;SDS011;7745;48.708;9.026;2023-02-15T04:14:32;26.97;;;19.17;;
15287;SDS011;7745;48.708;9.026;2023-02-15T04:17:16;28.90;;;18.53;;
15287;SDS011;7745;48.708;9.026;2023-02-15T04:19:43;30.60;;;18.60;;
15287;SDS011;7745;48.708;9.026;2023-02-15T04:22:29;29.37;;;18.87;;
15287;SDS011;7745;48.708;9.026;2023-02-15T04:25:13;28.23;;;17.77;;
15287;SDS011;7745;48.708;9.026;2023-02-15T04:27:40;28.80;;;19.10;;
15287;SDS011;7745;48.708;9.026;2023-02-15T04:30:09;25.83;;;18.10;;
15287;SDS011;7745;48.708;9.026;2023-02-15T04:32:37;30.07;;;17.90;;
15287;SDS011;7745;48.708;9.026;2023-02-15T04:35:04;27.23;;;18.13;;
15287;SDS011;7745;48.708;9.026;2023-02-15T04:37:34;27.70;;;18.70;;
15287;SDS011;7745;48.708;9.026;2023-02-15T04:40:00;27.73;;;18.93;;
15287;SDS011;7745;48.708;9.026;2023-02-15T04:42:28;28.73;;;19.00;;
15287;SDS011;7745;48.708;9.026;2023-02-15T04:44:55;26.43;;;18.30;;
15287;SDS011;7745;48.708;9.026;2023-02-15T04:47:22;27.70;;;18.20;;
15287;SDS011;7745;48.708;9.026;2023-02-15T04:49:48;28.47;;;18.90;;
15287;SDS011;7745;48.708;9.026;2023-02-15T04:52:15;29.53;;;18.57;;
15287;SDS011;7745;48.708;9.026;2023-02-15T04:54:44;26.53;;;19.40;;
15287;SDS011;7745;48.708;9.026;2023-02-15T04:57:11;28.13;;;18.93;;
15287;SDS011;7745;48.708;9.026;2023-02-15T04:59:39;26.90;;;19.70;;
15287;SDS011;7745;48.708;9.026;2023-02-15T05:02:05;27.63;;;19.03;;
15287;SDS011;7745;48.708;9.026;2023-02-15T05:04:33;27.10;;;18.50;;
15287;SDS011;7745;48.708;9.026;2023-02-15T05:07:00;30.47;;;19.57;;
15287;SDS011;7745;48.708;9.026;2023-02-15T05:09:27;27.23;;;18.93;;
15287;SDS011;7745;48.708;9.026;2023-02-15T05:11:55;29.03;;;20.03;;
15287;SDS011;7745;48.708;9.026;2023-02-15T05:14:22;29.40;;;18.83;;
15287;SDS011;7745;48.708;9.026;2023-02-15T05:16:48;26.57;;;19.03;;
15287;SDS011;7745;48.708;9.026;2023-02-15T05:19:15;27.77;;;18.80;;
15287;SDS011;7745;48.708;9.026;2023-02-15T05:21:42;25.50;;;18.43;;
15287;SDS011;7745;48.708;9.026;2023-02-15T05:24:09;33.20;;;20.50;;
15287;SDS011;7745;48.708;9.026;2023-02-15T05:26:49;26.70;;;17.97;;
15287;SDS011;7745;48.708;9.026;2023-02-15T05:29:35;28.07;;;18.80;;
15287;SDS011;7745;48.708;9.026;2023-02-15T05:32:02;26.43;;;18.00;;
15287;SDS011;7745;48.708;9.026;2023-02-15T05:34:29;30.00;;;19.20;;
15287;SDS011;7745;48.708;9.026;2023-02-15T05:36:56;27.23;;;18.23;;
15287;SDS011;7745;48.708;9.026;2023-02-15T05:39:22;25.23;;;17.97;;
15287;SDS011;7745;48.708;9.026;2023-02-15T05:41:49;31.00;;;18.13;;
15287;SDS011;7745;48.708;9.026;2023-02-15T05:44:16;27.63;;;18.93;;
15287;SDS011;7745;48.708;9.026;2023-02-15T05:46:44;25.70;;;19.00;;
15287;SDS011;7745;48.708;9.026;2023-02-15T05:49:11;26.60;;;18.80;;
15287;SDS011;7745;48.708;9.026;2023-02-15T05:51:37;29.27;;;19.37;;
15287;SDS011;7745;48.708;9.026;2023-02-15T05:54:04;30.13;;;19.00;;
15287;SDS011;7745;48.708;9.026;2023-02-15T05:56:31;30.37;;;20.43;;
15287;SDS011;7745;48.708;9.026;2023-02-15T05:58:58;30.33;;;19.57;;
15287;SDS011;7745;48.708;9.026;2023-02-15T06:01:25;29.47;;;20.23;;
15287;SDS011;7745;48.708;9.026;2023-02-15T06:03:53;26.47;;;19.00;;
15287;SDS011;7745;48.708;9.026;2023-02-15T06:06:20;27.87;;;19.23;;
15287;SDS011;7745;48.708;9.026;2023-02-15T06:08:47;28.20;;;19.30;;
15287;SDS011;7745;48.708;9.026;2023-02-15T06:11:14;29.93;;;19.70;;
15287;SDS011;7745;48.708;9.026;2023-02-15T06:13:41;28.60;;;18.23;;
15287;SDS011;7745;48.708;9.026;2023-02-15T06:16:07;25.47;;;18.90;;
15287;SDS011;7745;48.708;9.026;2023-02-15T06:18:34;30.07;;;18.40;;
15287;SDS011;7745;48.708;9.026;2023-02-15T06:21:02;28.67;;;17.23;;
15287;SDS011;7745;48.708;9.026;2023-02-15T06:23:30;28.33;;;18.33;;
15287;SDS011;7745;48.708;9.026;2023-02-15T06:25:56;26.40;;;17.73;;
15287;SDS011;7745;48.708;9.026;2023-02-15T06:28:23;29.20;;;18.10;;
15287;SDS011;7745;48.708;9.026;2023-02-15T06:30:51;30.40;;;18.97;;
15287;SDS011;7745;48.708;9.026;2023-02-15T06:33:18;28.70;;;18.73;;
15287;SDS011;7745;48.708;9.026;2023-02-15T06:35:44;26.43;;;18.87;;
15287;SDS011;7745;48.708;9.026;2023-02-15T06:38:13;27.37;;;19.10;;
15287;SDS011;7745;48.708;9.026;2023-02-15T06:40:39;29.07;;;18.17;;
15287;SDS011;7745;48.708;9.026;2023-02-15T06:43:06;31.47;;;18.13;;
15287;SDS011;7745;48.708;9.026;2023-02-15T06:45:33;33.37;;;18.67;;
15287;SDS011;7745;48.708;9.026;2023-02-15T06:48:00;27.87;;;18.40;;
15287;SDS011;7745;48.708;9.026;2023-02-15T06:50:26;30.40;;;18.20;;
15287;SDS011;7745;48.708;9.026;2023-02-15T06:52:55;23.33;;;16.87;;
15287;SDS011;7745;48.708;9.026;2023-02-15T06:55:24;27.13;;;16.67;;
15287;SDS011;7745;48.708;9.026;2023-02-15T06:57:51;25.67;;;17.57;;
15287;SDS011;7745;48.708;9.026;2023-02-15T07:00:18;26.67;;;16.60;;
15287;SDS011;7745;48.708;9.026;2023-02-15T07:02:47;25.27;;;16.83;;
15287;SDS011;7745;48.708;9.026;2023-02-15T07:05:13;24.83;;;16.30;;
15287;SDS011;7745;48.708;9.026;2023-02-15T07:07:40;27.83;;;17.30;;
15287;SDS011;7745;48.708;9.026;2023-02-15T07:10:07;26.83;;;18.23;;
15287;SDS011;7745;48.708;9.026;2023-02-15T07:12:36;26.70;;;17.40;;
15287;SDS011;7745;48.708;9.026;2023-02-15T07:15:09;25.90;;;17.17;;
15287;SDS011;7745;48.708;9.026;2023-02-15T07:17:36;27.13;;;18.37;;
15287;SDS011;7745;48.708;9.026;2023-02-15T07:20:04;26.47;;;17.77;;
15287;SDS011;7745;48.708;9.026;2023-02-15T07:22:33;29.83;;;17.57;;
15287;SDS011;7745;48.708;9.026;2023-02-15T07:25:01;29.93;;;17.30;;
15287;SDS011;7745;48.708;9.026;2023-02-15T07:27:28;27.33;;;17.57;;
15287;SDS011;7745;48.708;9.026;2023-02-15T07:29:56;25.33;;;17.37;;
15287;SDS011;7745;48.708;9.026;2023-02-15T07:32:23;26.60;;;17.53;;
15287;SDS011;7745;48.708;9.026;2023-02-15T07:34:50;26.80;;;17.53;;
15287;SDS011;7745;48.708;9.026;2023-02-15T07:37:16;24.70;;;16.17;;
15287;SDS011;7745;48.708;9.026;2023-02-15T07:39:43;27.43;;;18.50;;
15287;SDS011;7745;48.708;9.026;2023-02-15T07:42:10;27.67;;;17.80;;
15287;SDS011;7745;48.708;9.026;2023-02-15T07:44:37;26.47;;;17.70;;
15287;SDS011;7745;48.708;9.026;2023-02-15T07:47:05;30.30;;;17.97;;
15287;SDS011;7745;48.708;9.026;2023-02-15T07:49:32;25.03;;;17.00;;
15287;SDS011;7745;48.708;9.026;2023-02-15T07:52:00;27.07;;;17.87;;
15287;SDS011;7745;48.708;9.026;2023-02-15T07:54:27;27.73;;;17.87;;
15287;SDS011;7745;48.708;9.026;2023-02-15T07:56:54;29.50;;;18.80;;
15287;SDS011;7745;48.708;9.026;2023-02-15T07:59:20;29.47;;;19.60;;
15287;SDS011;7745;48.708;9.026;2023-02-15T08:01:47;30.50;;;20.33;;
15287;SDS011;7745;48.708;9.026;2023-02-15T08:04:15;31.67;;;20.07;;
15287;SDS011;7745;48.708;9.026;2023-02-15T08:06:43;33.80;;;21.47;;
15287;SDS011;7745;48.708;9.026;2023-02-15T08:09:13;32.23;;;20.43;;
15287;SDS011;7745;48.708;9.026;2023-02-15T08:11:40;38.70;;;22.63;;
15287;SDS011;7745;48.708;9.026;2023-02-15T08:14:08;34.23;;;22.60;;
15287;SDS011;7745;48.708;9.026;2023-02-15T08:16:36;33.70;;;23.43;;
15287;SDS011;7745;48.708;9.026;2023-02-15T08:19:06;38.57;;;24.10;;
15287;SDS011;7745;48.708;9.026;2023-02-15T08:21:35;39.27;;;24.70;;
15287;SDS011;7745;48.708;9.026;2023-02-15T08:24:03;42.77;;;24.80;;
15287;SDS011;7745;48.708;9.026;2023-02-15T08:26:31;37.33;;;24.00;;
15287;SDS011;7745;48.708;9.026;2023-02-15T08:28:59;37.93;;;24.43;;
15287;SDS011;7745;48.708;9.026;2023-02-15T08:31:26;36.63;;;22.50;;
15287;SDS011;7745;48.708;9.026;2023-02-15T08:33:54;36.17;;;21.60;;
15287;SDS011;7745;48.708;9.026;2023-02-15T08:36:22;31.20;;;20.50;;
15287;SDS011;7745;48.708;9.026;2023-02-15T08:38:53;33.63;;;20.93;;
15287;SDS011;7745;48.708;9.026;2023-02-15T08:41:21;29.30;;;21.20;;
15287;SDS011;7745;48.708;9.026;2023-02-15T08:43:49;37.87;;;22.57;;
15287;SDS011;7745;48.708;9.026;2023-02-15T08:46:19;29.97;;;19.70;;
15287;SDS011;7745;48.708;9.026;2023-02-15T08:48:47;31.80;;;20.77;;
15287;SDS011;7745;48.708;9.026;2023-02-15T08:51:15;30.87;;;18.83;;
15287;SDS011;7745;48.708;9.026;2023-02-15T08:53:44;26.97;;;17.93;;
15287;SDS011;7745;48.708;9.026;2023-02-15T08:56:15;27.03;;;16.87;;
15287;SDS011;7745;48.708;9.026;2023-02-15T08:58:42;25.97;;;18.20;;
15287;SDS011;7745;48.708;9.026;2023-02-15T09:01:09;27.70;;;16.93;;
15287;SDS011;7745;48.708;9.026;2023-02-15T09:03:37;27.83;;;16.63;;
15287;SDS011;7745;48.708;9.026;2023-02-15T09:06:05;23.70;;;15.03;;
15287;SDS011;7745;48.708;9.026;2023-02-15T09:08:32;19.73;;;13.63;;
15287;SDS011;7745;48.708;9.026;2023-02-15T09:11:06;18.90;;;11.73;;
15287;SDS011;7745;48.708;9.026;2023-02-15T09:13:35;17.53;;;11.23;;
15287;SDS011;7745;48.708;9.026;2023-02-15T09:16:04;14.87;;;10.47;;
15287;SDS011;7745;48.708;9.026;2023-02-15T09:18:33;17.77;;;11.77;;
15287;SDS011;7745;48.708;9.026;2023-02-15T09:21:06;14.43;;;9.83;;
15287;SDS011;7745;48.708;9.026;2023-02-15T09:23:34;16.27;;;11.40;;
15287;SDS011;7745;48.708;9.026;2023-02-15T09:26:03;16.27;;;9.30;;
15287;SDS011;7745;48.708;9.026;2023-02-15T09:28:31;18.33;;;10.50;;
15287;SDS011;7745;48.708;9.026;2023-02-15T09:31:05;19.67;;;10.27;;
15287;SDS011;7745;48.708;9.026;2023-02-15T09:33:37;18.20;;;10.83;;
15287;SDS011;7745;48.708;9.026;2023-02-15T09:36:05;16.23;;;11.10;;
15287;SDS011;7745;48.708;9.026;2023-02-15T09:38:40;19.50;;;11.23;;
15287;SDS011;7745;48.708;9.026;2023-02-15T09:41:11;17.07;;;11.03;;
15287;SDS011;7745;48.708;9.026;2023-02-15T09:43:48;17.03;;;10.77;;
15287;SDS011;7745;48.708;9.026;2023-02-15T09:46:34;17.20;;;9.73;;
15287;SDS011;7745;48.708;9.026;2023-02-15T09:49:13;15.17;;;10.10;;
15287;SDS011;7745;48.708;9.026;2023-02-15T09:51:55;15.97;;;9.63;;
15287;SDS011;7745;48.708;9.026;2023-02-15T09:54:45;19.90;;;9.83;;
15287;SDS011;7745;48.708;9.026;2023-02-15T09:57:26;18.57;;;10.77;;
15287;SDS011;7745;48.708;9.026;2023-02-15T10:00:02;19.40;;;10.07;;
15287;SDS011;7745;48.708;9.026;2023-02-15T10:02:48;20.17;;;10.27;;
15287;SDS011;7745;48.708;9.026;2023-02-15T10:05:34;18.63;;;10.33;;
15287;SDS011;7745;48.708;9.026;2023-02-15T10:08:18;20.20;;;10.00;;
15287;SDS011;7745;48.708;9.026;2023-02-15T10:11:15;20.30;;;9.87;;
15287;SDS011;7745;48.708;9.026;2023-02-15T10:14:06;16.80;;;10.20;;
15287;SDS011;7745;48.708;9.026;2023-02-15T10:16:55;13.97;;;9.33;;
15287;SDS011;7745;48.708;9.026;2023-02-15T10:19:36;23.50;;;10.83;;
15287;SDS011;7745;48.708;9.026;2023-02-15T10:22:12;15.30;;;9.07;;
15287;SDS011;7745;48.708;9.026;2023-02-15T10:24:54;16.97;;;8.80;;
15287;SDS011;7745;48.708;9.026;2023-02-15T10:27:38;14.20;;;10.07;;
15287;SDS011;7745;48.708;9.026;2023-02-15T10:30:11;13.67;;;8.90;;
15287;SDS011;7745;48.708;9.026;2023-02-15T10:32:39;15.90;;;9.20;;
15287;SDS011;7745;48.708;9.026;2023-02-15T10:35:16;15.17;;;9.33;;
15287;SDS011;7745;48.708;9.026;2023-02-15T10:37:53;18.83;;;9.47;;
15287;SDS011;7745;48.708;9.026;2023-02-15T10:40:28;16.43;;;8.60;;
15287;SDS011;7745;48.708;9.026;2023-02-15T10:43:11;14.30;;;8.60;;
15287;SDS011;7745;48.708;9.026;2023-02-15T10:45:53;15.03;;;7.13;;
15287;SDS011;7745;48.708;9.026;2023-02-15T10:48:34;13.57;;;7.10;;
15287;SDS011;7745;48.708;9.026;2023-02-15T10:51:21;13.53;;;6.63;;
15287;SDS011;7745;48.708;9.026;2023-02-15T10:54:05;12.53;;;7.40;;
15287;SDS011;7745;48.708;9.026;2023-02-15T10:56:42;13.03;;;6.77;;
15287;SDS011;7745;48.708;9.026;2023-02-15T11:02:04;12.57;;;7.17;;
15287;SDS011;7745;48.708;9.026;2023-02-15T11:04:48;15.10;;;7.77;;
15287;SDS011;7745;48.708;9.026;2023-02-15T11:07:23;17.53;;;7.73;;
15287;SDS011;7745;48.708;9.026;2023-02-15T11:09:53;14.03;;;7.97;;
15287;SDS011;7745;48.708;9.026;2023-02-15T11:12:27;10.60;;;7.60;;
15287;SDS011;7745;48.708;9.026;2023-02-15T11:14:58;12.67;;;7.90;;
15287;SDS011;7745;48.708;9.026;2023-02-15T11:17:30;11.00;;;7.30;;
15287;SDS011;7745;48.708;9.026;2023-02-15T11:20:04;16.23;;;7.77;;
15287;SDS011;7745;48.708;9.026;2023-02-15T11:22:43;12.03;;;7.50;;
15287;SDS011;7745;48.708;9.026;2023-02-15T11:25:17;15.13;;;8.87;;
15287;SDS011;7745;48.708;9.026;2023-02-15T11:27:46;16.67;;;8.00;;
15287;SDS011;7745;48.708;9.026;2023-02-15T11:30:17;16.00;;;7.70;;
15287;SDS011;7745;48.708;9.026;2023-02-15T11:32:47;12.83;;;7.80;;
15287;SDS011;7745;48.708;9.026;2023-02-15T11:35:19;13.90;;;8.07;;
15287;SDS011;7745;48.708;9.026;2023-02-15T11:37:57;14.13;;;7.67;;
15287;SDS011;7745;48.708;9.026;2023-02-15T11:40:30;12.10;;;7.77;;
15287;SDS011;7745;48.708;9.026;2023-02-15T11:43:01;13.90;;;7.63;;
15287;SDS011;7745;48.708;9.026;2023-02-15T11:45:33;11.07;;;7.50;;
15287;SDS011;7745;48.708;9.026;2023-02-15T11:48:00;11.43;;;7.87;;
15287;SDS011;7745;48.708;9.026;2023-02-15T11:50:34;11.43;;;6.90;;
15287;SDS011;7745;48.708;9.026;2023-02-15T11:53:04;11.30;;;6.73;;
15287;SDS011;7745;48.708;9.026;2023-02-15T11:55:36;10.33;;;6.43;;
15287;SDS011;7745;48.708;9.026;2023-02-15T11:58:04;10.33;;;6.37;;
15287;SDS011;7745;48.708;9.026;2023-02-15T12:00:39;13.83;;;7.00;;
15287;SDS011;7745;48.708;9.026;2023-02-15T12:03:11;12.87;;;7.60;;
15287;SDS011;7745;48.708;9.026;2023-02-15T12:05:42;15.90;;;8.30;;
15287;SDS011;7745;48.708;9.026;2023-02-15T12:08:16;12.03;;;6.80;;
15287;SDS011;7745;48.708;9.026;2023-02-15T12:10:55;11.70;;;7.43;;
15287;SDS011;7745;48.708;9.026;2023-02-15T12:13:26;10.83;;;7.57;;
15287;SDS011;7745;48.708;9.026;2023-02-15T12:15:53;11.57;;;7.50;;
15287;SDS011;7745;48.708;9.026;2023-02-15T12:21:10;15.67;;;7.77;;
15287;SDS011;7745;48.708;9.026;2023-02-15T12:23:41;15.20;;;7.30;;
15287;SDS011;7745;48.708;9.026;2023-02-15T12:26:13;9.63;;;5.70;;
15287;SDS011;7745;48.708;9.026;2023-02-15T12:28:41;14.03;;;6.80;;
15287;SDS011;7745;48.708;9.026;2023-02-15T12:31:19;12.57;;;6.37;;
15287;SDS011;7745;48.708;9.026;2023-02-15T12:33:47;11.77;;;6.90;;
15287;SDS011;7745;48.708;9.026;2023-02-15T12:36:18;10.60;;;6.07;;
15287;SDS011;7745;48.708;9.026;2023-02-15T12:41:45;12.97;;;5.50;;
15287;SDS011;7745;48.708;9.026;2023-02-15T12:44:15;12.53;;;5.60;;
15287;SDS011;7745;48.708;9.026;2023-02-15T12:46:44;13.03;;;6.60;;
15287;SDS011;7745;48.708;9.026;2023-02-15T12:49:23;13.17;;;6.37;;
15287;SDS011;7745;48.708;9.026;2023-02-15T12:51:50;12.77;;;6.37;;
15287;SDS011;7745;48.708;9.026;2023-02-15T12:54:35;10.70;;;5.67;;
15287;SDS011;7745;48.708;9.026;2023-02-15T12:59:56;12.33;;;7.10;;
15287;SDS011;7745;48.708;9.026;2023-02-15T13:02:27;14.40;;;7.03;;
15287;SDS011;7745;48.708;9.026;2023-02-15T13:04:57;8.30;;;6.00;;
15287;SDS011;7745;48.708;9.026;2023-02-15T13:07:33;12.90;;;6.70;;
15287;SDS011;7745;48.708;9.026;2023-02-15T13:10:00;7.57;;;5.03;;
15287;SDS011;7745;48.708;9.026;2023-02-15T13:12:29;7.77;;;5.50;;
15287;SDS011;7745;48.708;9.026;2023-02-15T13:14:58;8.87;;;5.33;;
15287;SDS011;7745;48.708;9.026;2023-02-15T13:17:28;7.67;;;4.60;;
15287;SDS011;7745;48.708;9.026;2023-02-15T13:20:00;9.47;;;5.50;;
15287;SDS011;7745;48.708;9.026;2023-02-15T13:22:32;7.97;;;4.77;;
15287;SDS011;7745;48.708;9.026;2023-02-15T13:25:04;8.27;;;5.80;;
15287;SDS011;7745;48.708;9.026;2023-02-15T13:27:39;16.00;;;6.77;;
15287;SDS011;7745;48.708;9.026;2023-02-15T13:30:14;10.63;;;6.77;;
15287;SDS011;7745;48.708;9.026;2023-02-15T13:32:48;7.60;;;4.80;;
15287;SDS011;7745;48.708;9.026;2023-02-15T13:35:17;10.50;;;5.67;;
15287;SDS011;7745;48.708;9.026;2023-02-15T13:37:49;10.83;;;5.77;;
15287;SDS011;7745;48.708;9.026;2023-02-15T13:40:29;9.77;;;6.10;;
15287;SDS011;7745;48.708;9.026;2023-02-15T13:43:02;10.50;;;6.17;;
15287;SDS011;7745;48.708;9.026;2023-02-15T13:45:39;8.77;;;5.83;;
15287;SDS011;7745;48.708;9.026;2023-02-15T13:48:20;8.57;;;5.70;;
15287;SDS011;7745;48.708;9.026;2023-02-15T13:51:00;8.60;;;5.70;;
15287;SDS011;7745;48.708;9.026;2023-02-15T13:53:41;10.43;;;6.53;;
15287;SDS011;7745;48.708;9.026;2023-02-15T13:56:35;9.40;;;7.13;;
15287;SDS011;7745;48.708;9.026;2023-02-15T13:59:20;9.00;;;6.67;;
15287;SDS011;7745;48.708;9.026;2023-02-15T14:01:56;10.47;;;6.47;;
15287;SDS011;7745;48.708;9.026;2023-02-15T14:04:37;8.33;;;6.23;;
15287;SDS011;7745;48.708;9.026;2023-02-15T14:10:25;8.07;;;5.80;;
15287;SDS011;7745;48.708;9.026;2023-02-15T14:15:58;13.27;;;9.47;;
15287;SDS011;7745;48.708;9.026;2023-02-15T14:18:30;16.97;;;9.03;;
15287;SDS011;7745;48.708;9.026;2023-02-15T14:21:08;11.80;;;9.30;;
15287;SDS011;7745;48.708;9.026;2023-02-15T14:23:49;10.50;;;7.17;;
15287;SDS011;7745;48.708;9.026;2023-02-15T14:26:25;12.53;;;8.47;;
15287;SDS011;7745;48.708;9.026;2023-02-15T14:29:05;12.40;;;9.00;;
15287;SDS011;7745;48.708;9.026;2023-02-15T14:31:42;11.90;;;8.80;;
15287;SDS011;7745;48.708;9.026;2023-02-15T14:34:17;15.77;;;8.33;;
15287;SDS011;7745;48.708;9.026;2023-02-15T14:36:47;13.30;;;8.43;;
15287;SDS011;7745;48.708;9.026;2023-02-15T14:39:17;13.27;;;8.57;;
15287;SDS011;7745;48.708;9.026;2023-02-15T14:42:07;13.03;;;8.13;;
15287;SDS011;7745;48.708;9.026;2023-02-15T14:44:40;18.33;;;9.37;;
15287;SDS011;7745;48.708;9.026;2023-02-15T14:47:15;10.67;;;8.10;;
15287;SDS011;7745;48.708;9.026;2023-02-15T14:49:45;13.93;;;8.43;;
15287;SDS011;7745;48.708;9.026;2023-02-15T14:52:12;17.70;;;8.83;;
15287;SDS011;7745;48.708;9.026;2023-02-15T14:55:00;16.70;;;8.80;;
15287;SDS011;7745;48.708;9.026;2023-02-15T14:57:27;20.07;;;8.57;;
15287;SDS011;7745;48.708;9.026;2023-02-15T14:59:57;13.70;;;8.53;;
15287;SDS011;7745;48.708;9.026;2023-02-15T15:02:28;17.77;;;9.10;;
15287;SDS011;7745;48.708;9.026;2023-02-15T15:05:06;10.30;;;8.47;;
15287;SDS011;7745;48.708;9.026;2023-02-15T15:07:37;14.63;;;9.77;;
15287;SDS011;7745;48.708;9.026;2023-02-15T15:18:58;14.13;;;10.57;;
15287;SDS011;7745;48.708;9.026;2023-02-15T15:33:36;22.97;;;12.07;;
15287;SDS011;7745;48.708;9.026;2023-02-15T15:42:50;21.70;;;11.80;;
15287;SDS011;7745;48.708;9.026;2023-02-15T15:45:38;20.17;;;11.83;;
15287;SDS011;7745;48.708;9.026;2023-02-15T15:48:28;16.87;;;12.17;;
15287;SDS011;7745;48.708;9.026;2023-02-15T15:51:01;25.63;;;12.50;;
15287;SDS011;7745;48.708;9.026;2023-02-15T15:53:32;23.30;;;14.20;;
15287;SDS011;7745;48.708;9.026;2023-02-15T15:56:11;20.63;;;12.87;;